Rawlins, Wyoming
Current Conditions -  °F | °C
As of 11:53 PM on Sunday 23 Nov 2014 (Local Time) from KRWL Reporting Station
Clear Clear  
Wind Chill:   Ceiling: Unl
Heat Index: 21°   Visibility: 10mi
Dew Point: 12°   Wind: 26mph
Humidity: 68%   Direction: 270°W
Pressure: 29.92"   Gusts: 40mph
Location:  41.79°N, 107.23°W
Report Text: KRWL 240653Z AUTO 27023G35KT 10SM CLR M06/M11 A2992 RMK AO2 PK WND 27035/0650 SLP158 T10611111 410061078
Loading
Personal Weather Stations






























Interactive Weather Map New forecast layout! Learn more

10-Day Weather Forecast

Advertisements
Track Severe Weather on mobile